sensor_id;sensor_type;location;lat;lon;timestamp;P1;durP1;ratioP1;P2;durP2;ratioP2
13588;SDS011;6865;52.552;13.434;2024-01-07T00:00:15;6.27;;;3.20;;
13588;SDS011;6865;52.552;13.434;2024-01-07T00:02:43;5.37;;;3.00;;
13588;SDS011;6865;52.552;13.434;2024-01-07T00:05:09;5.10;;;2.90;;
13588;SDS011;6865;52.552;13.434;2024-01-07T00:07:36;4.97;;;2.70;;
13588;SDS011;6865;52.552;13.434;2024-01-07T00:10:03;4.70;;;2.50;;
13588;SDS011;6865;52.552;13.434;2024-01-07T00:12:30;4.47;;;3.00;;
13588;SDS011;6865;52.552;13.434;2024-01-07T00:14:57;6.33;;;3.10;;
13588;SDS011;6865;52.552;13.434;2024-01-07T00:17:24;5.23;;;2.73;;
13588;SDS011;6865;52.552;13.434;2024-01-07T00:19:51;5.43;;;2.80;;
13588;SDS011;6865;52.552;13.434;2024-01-07T00:22:17;4.80;;;2.80;;
13588;SDS011;6865;52.552;13.434;2024-01-07T00:24:44;5.53;;;3.10;;
13588;SDS011;6865;52.552;13.434;2024-01-07T00:27:11;4.23;;;2.60;;
13588;SDS011;6865;52.552;13.434;2024-01-07T00:29:38;3.90;;;2.70;;
13588;SDS011;6865;52.552;13.434;2024-01-07T00:32:04;5.00;;;2.93;;
13588;SDS011;6865;52.552;13.434;2024-01-07T00:34:31;4.23;;;2.70;;
13588;SDS011;6865;52.552;13.434;2024-01-07T00:36:58;4.00;;;2.47;;
13588;SDS011;6865;52.552;13.434;2024-01-07T00:39:25;3.50;;;2.40;;
13588;SDS011;6865;52.552;13.434;2024-01-07T00:41:51;3.77;;;2.00;;
13588;SDS011;6865;52.552;13.434;2024-01-07T00:44:18;3.20;;;2.13;;
13588;SDS011;6865;52.552;13.434;2024-01-07T00:46:45;3.80;;;2.40;;
13588;SDS011;6865;52.552;13.434;2024-01-07T00:49:14;3.40;;;2.50;;
13588;SDS011;6865;52.552;13.434;2024-01-07T00:51:41;4.37;;;2.27;;
13588;SDS011;6865;52.552;13.434;2024-01-07T00:54:08;4.77;;;2.37;;
13588;SDS011;6865;52.552;13.434;2024-01-07T00:56:35;3.33;;;2.10;;
13588;SDS011;6865;52.552;13.434;2024-01-07T00:59:01;3.83;;;2.10;;
13588;SDS011;6865;52.552;13.434;2024-01-07T01:01:28;3.10;;;1.90;;
13588;SDS011;6865;52.552;13.434;2024-01-07T01:03:56;3.20;;;1.80;;
13588;SDS011;6865;52.552;13.434;2024-01-07T01:06:24;3.77;;;2.20;;
13588;SDS011;6865;52.552;13.434;2024-01-07T01:08:51;3.80;;;2.10;;
13588;SDS011;6865;52.552;13.434;2024-01-07T01:11:18;3.77;;;2.00;;
13588;SDS011;6865;52.552;13.434;2024-01-07T01:13:44;3.87;;;2.00;;
13588;SDS011;6865;52.552;13.434;2024-01-07T01:16:11;3.27;;;2.10;;
13588;SDS011;6865;52.552;13.434;2024-01-07T01:18:38;4.73;;;2.20;;
13588;SDS011;6865;52.552;13.434;2024-01-07T01:21:04;4.10;;;2.30;;
13588;SDS011;6865;52.552;13.434;2024-01-07T01:23:31;4.20;;;2.30;;
13588;SDS011;6865;52.552;13.434;2024-01-07T01:25:58;3.97;;;2.10;;
13588;SDS011;6865;52.552;13.434;2024-01-07T01:28:24;3.70;;;2.23;;
13588;SDS011;6865;52.552;13.434;2024-01-07T01:30:51;3.43;;;2.10;;
13588;SDS011;6865;52.552;13.434;2024-01-07T01:33:18;3.93;;;2.20;;
13588;SDS011;6865;52.552;13.434;2024-01-07T01:35:45;5.10;;;2.40;;
13588;SDS011;6865;52.552;13.434;2024-01-07T01:38:11;2.80;;;1.87;;
13588;SDS011;6865;52.552;13.434;2024-01-07T01:40:39;3.37;;;1.90;;
13588;SDS011;6865;52.552;13.434;2024-01-07T01:43:05;3.73;;;2.17;;
13588;SDS011;6865;52.552;13.434;2024-01-07T01:45:32;3.30;;;2.10;;
13588;SDS011;6865;52.552;13.434;2024-01-07T01:47:59;3.63;;;1.90;;
13588;SDS011;6865;52.552;13.434;2024-01-07T01:50:26;4.47;;;2.13;;
13588;SDS011;6865;52.552;13.434;2024-01-07T01:52:53;2.63;;;1.90;;
13588;SDS011;6865;52.552;13.434;2024-01-07T01:55:22;3.33;;;2.20;;
13588;SDS011;6865;52.552;13.434;2024-01-07T01:57:49;3.87;;;2.43;;
13588;SDS011;6865;52.552;13.434;2024-01-07T02:00:18;3.63;;;2.30;;
13588;SDS011;6865;52.552;13.434;2024-01-07T02:02:44;4.40;;;2.20;;
13588;SDS011;6865;52.552;13.434;2024-01-07T02:05:11;3.27;;;2.37;;
13588;SDS011;6865;52.552;13.434;2024-01-07T02:07:40;3.70;;;2.40;;
13588;SDS011;6865;52.552;13.434;2024-01-07T02:10:06;3.70;;;2.50;;
13588;SDS011;6865;52.552;13.434;2024-01-07T02:12:34;4.63;;;2.40;;
13588;SDS011;6865;52.552;13.434;2024-01-07T02:15:01;3.30;;;2.30;;
13588;SDS011;6865;52.552;13.434;2024-01-07T02:17:27;3.60;;;2.30;;
13588;SDS011;6865;52.552;13.434;2024-01-07T02:19:54;3.57;;;2.03;;
13588;SDS011;6865;52.552;13.434;2024-01-07T02:22:21;4.23;;;2.30;;
13588;SDS011;6865;52.552;13.434;2024-01-07T02:24:48;3.93;;;2.10;;
13588;SDS011;6865;52.552;13.434;2024-01-07T02:27:14;3.53;;;2.20;;
13588;SDS011;6865;52.552;13.434;2024-01-07T02:29:41;2.50;;;1.90;;
13588;SDS011;6865;52.552;13.434;2024-01-07T02:32:08;3.03;;;1.60;;
13588;SDS011;6865;52.552;13.434;2024-01-07T02:34:34;2.67;;;1.73;;
13588;SDS011;6865;52.552;13.434;2024-01-07T02:37:01;2.67;;;1.57;;
13588;SDS011;6865;52.552;13.434;2024-01-07T02:39:28;2.63;;;1.70;;
13588;SDS011;6865;52.552;13.434;2024-01-07T02:41:54;3.20;;;1.90;;
13588;SDS011;6865;52.552;13.434;2024-01-07T02:44:21;2.30;;;1.80;;
13588;SDS011;6865;52.552;13.434;2024-01-07T02:46:48;2.43;;;1.70;;
13588;SDS011;6865;52.552;13.434;2024-01-07T02:49:15;2.40;;;1.57;;
13588;SDS011;6865;52.552;13.434;2024-01-07T02:51:41;2.77;;;1.50;;
13588;SDS011;6865;52.552;13.434;2024-01-07T02:54:11;2.03;;;1.40;;
13588;SDS011;6865;52.552;13.434;2024-01-07T02:56:38;2.37;;;1.40;;
13588;SDS011;6865;52.552;13.434;2024-01-07T02:59:04;4.27;;;1.70;;
13588;SDS011;6865;52.552;13.434;2024-01-07T03:01:31;2.33;;;1.67;;
13588;SDS011;6865;52.552;13.434;2024-01-07T03:03:58;3.20;;;1.77;;
13588;SDS011;6865;52.552;13.434;2024-01-07T03:06:26;2.27;;;1.50;;
13588;SDS011;6865;52.552;13.434;2024-01-07T03:08:54;1.73;;;1.50;;
13588;SDS011;6865;52.552;13.434;2024-01-07T03:11:20;2.20;;;1.43;;
13588;SDS011;6865;52.552;13.434;2024-01-07T03:13:47;3.83;;;1.60;;
13588;SDS011;6865;52.552;13.434;2024-01-07T03:16:20;2.13;;;1.50;;
13588;SDS011;6865;52.552;13.434;2024-01-07T03:18:51;2.77;;;1.70;;
13588;SDS011;6865;52.552;13.434;2024-01-07T03:21:18;3.57;;;1.50;;
13588;SDS011;6865;52.552;13.434;2024-01-07T03:23:46;2.00;;;1.30;;
13588;SDS011;6865;52.552;13.434;2024-01-07T03:26:14;2.63;;;1.70;;
13588;SDS011;6865;52.552;13.434;2024-01-07T03:28:40;2.13;;;1.53;;
13588;SDS011;6865;52.552;13.434;2024-01-07T03:31:14;1.87;;;1.60;;
13588;SDS011;6865;52.552;13.434;2024-01-07T03:33:42;3.63;;;1.60;;
13588;SDS011;6865;52.552;13.434;2024-01-07T03:36:10;3.03;;;1.87;;
13588;SDS011;6865;52.552;13.434;2024-01-07T03:38:38;2.90;;;1.63;;
13588;SDS011;6865;52.552;13.434;2024-01-07T03:41:05;2.13;;;1.60;;
13588;SDS011;6865;52.552;13.434;2024-01-07T03:43:32;2.87;;;1.93;;
13588;SDS011;6865;52.552;13.434;2024-01-07T03:45:59;2.13;;;1.60;;
13588;SDS011;6865;52.552;13.434;2024-01-07T03:48:26;3.37;;;1.67;;
13588;SDS011;6865;52.552;13.434;2024-01-07T03:50:53;2.10;;;1.57;;
13588;SDS011;6865;52.552;13.434;2024-01-07T03:53:20;2.20;;;1.50;;
13588;SDS011;6865;52.552;13.434;2024-01-07T03:55:47;2.23;;;1.80;;
13588;SDS011;6865;52.552;13.434;2024-01-07T03:58:13;2.83;;;1.60;;
13588;SDS011;6865;52.552;13.434;2024-01-07T04:00:40;1.80;;;1.50;;
13588;SDS011;6865;52.552;13.434;2024-01-07T04:03:07;2.27;;;1.90;;
13588;SDS011;6865;52.552;13.434;2024-01-07T04:05:33;2.33;;;1.60;;
13588;SDS011;6865;52.552;13.434;2024-01-07T04:08:01;2.47;;;1.60;;
13588;SDS011;6865;52.552;13.434;2024-01-07T04:10:28;3.53;;;1.73;;
13588;SDS011;6865;52.552;13.434;2024-01-07T04:12:54;3.13;;;1.50;;
13588;SDS011;6865;52.552;13.434;2024-01-07T04:15:21;3.13;;;1.57;;
13588;SDS011;6865;52.552;13.434;2024-01-07T04:17:49;2.23;;;1.50;;
13588;SDS011;6865;52.552;13.434;2024-01-07T04:20:16;2.50;;;1.50;;
13588;SDS011;6865;52.552;13.434;2024-01-07T04:22:42;2.20;;;1.70;;
13588;SDS011;6865;52.552;13.434;2024-01-07T04:25:09;3.30;;;1.63;;
13588;SDS011;6865;52.552;13.434;2024-01-07T04:27:37;1.83;;;1.67;;
13588;SDS011;6865;52.552;13.434;2024-01-07T04:30:04;2.50;;;1.70;;
13588;SDS011;6865;52.552;13.434;2024-01-07T04:32:32;2.53;;;1.70;;
13588;SDS011;6865;52.552;13.434;2024-01-07T04:34:59;2.43;;;1.73;;
13588;SDS011;6865;52.552;13.434;2024-01-07T04:37:25;3.30;;;1.60;;
13588;SDS011;6865;52.552;13.434;2024-01-07T04:39:52;2.50;;;1.77;;
13588;SDS011;6865;52.552;13.434;2024-01-07T04:42:19;2.53;;;1.57;;
13588;SDS011;6865;52.552;13.434;2024-01-07T04:44:46;1.90;;;1.50;;
13588;SDS011;6865;52.552;13.434;2024-01-07T04:47:29;2.70;;;1.53;;
13588;SDS011;6865;52.552;13.434;2024-01-07T04:49:57;2.33;;;1.50;;
13588;SDS011;6865;52.552;13.434;2024-01-07T04:52:24;2.30;;;1.67;;
13588;SDS011;6865;52.552;13.434;2024-01-07T04:54:52;1.80;;;1.47;;
13588;SDS011;6865;52.552;13.434;2024-01-07T04:57:19;2.23;;;1.67;;
13588;SDS011;6865;52.552;13.434;2024-01-07T04:59:47;2.10;;;1.50;;
13588;SDS011;6865;52.552;13.434;2024-01-07T05:02:14;1.80;;;1.30;;
13588;SDS011;6865;52.552;13.434;2024-01-07T05:04:41;2.53;;;1.70;;
13588;SDS011;6865;52.552;13.434;2024-01-07T05:07:08;2.03;;;1.30;;
13588;SDS011;6865;52.552;13.434;2024-01-07T05:09:35;3.30;;;1.30;;
13588;SDS011;6865;52.552;13.434;2024-01-07T05:12:02;2.67;;;1.73;;
13588;SDS011;6865;52.552;13.434;2024-01-07T05:14:29;2.63;;;1.60;;
13588;SDS011;6865;52.552;13.434;2024-01-07T05:16:55;2.17;;;1.80;;
13588;SDS011;6865;52.552;13.434;2024-01-07T05:19:22;2.20;;;1.60;;
13588;SDS011;6865;52.552;13.434;2024-01-07T05:21:49;2.63;;;1.50;;
13588;SDS011;6865;52.552;13.434;2024-01-07T05:24:16;3.27;;;1.93;;
13588;SDS011;6865;52.552;13.434;2024-01-07T05:26:43;3.20;;;1.80;;
13588;SDS011;6865;52.552;13.434;2024-01-07T05:29:10;2.60;;;1.60;;
13588;SDS011;6865;52.552;13.434;2024-01-07T05:31:39;2.53;;;1.83;;
13588;SDS011;6865;52.552;13.434;2024-01-07T05:34:06;2.20;;;1.70;;
13588;SDS011;6865;52.552;13.434;2024-01-07T05:36:33;2.80;;;1.70;;
13588;SDS011;6865;52.552;13.434;2024-01-07T05:39:00;4.10;;;1.90;;
13588;SDS011;6865;52.552;13.434;2024-01-07T05:41:27;3.63;;;1.90;;
13588;SDS011;6865;52.552;13.434;2024-01-07T05:43:54;2.50;;;1.57;;
13588;SDS011;6865;52.552;13.434;2024-01-07T05:46:21;2.47;;;1.63;;
13588;SDS011;6865;52.552;13.434;2024-01-07T05:48:47;3.17;;;1.60;;
13588;SDS011;6865;52.552;13.434;2024-01-07T05:51:16;2.43;;;1.80;;
13588;SDS011;6865;52.552;13.434;2024-01-07T05:53:43;2.30;;;1.67;;
13588;SDS011;6865;52.552;13.434;2024-01-07T05:56:11;3.37;;;1.93;;
13588;SDS011;6865;52.552;13.434;2024-01-07T05:58:38;3.43;;;1.97;;
13588;SDS011;6865;52.552;13.434;2024-01-07T06:01:05;2.80;;;1.77;;
13588;SDS011;6865;52.552;13.434;2024-01-07T06:03:33;3.33;;;1.93;;
13588;SDS011;6865;52.552;13.434;2024-01-07T06:06:00;3.67;;;1.83;;
13588;SDS011;6865;52.552;13.434;2024-01-07T06:08:27;3.63;;;1.70;;
13588;SDS011;6865;52.552;13.434;2024-01-07T06:10:54;2.87;;;1.97;;
13588;SDS011;6865;52.552;13.434;2024-01-07T06:13:21;3.63;;;1.90;;
13588;SDS011;6865;52.552;13.434;2024-01-07T06:15:47;3.43;;;1.90;;
13588;SDS011;6865;52.552;13.434;2024-01-07T06:18:14;2.83;;;2.13;;
13588;SDS011;6865;52.552;13.434;2024-01-07T06:20:41;3.07;;;2.20;;
13588;SDS011;6865;52.552;13.434;2024-01-07T06:23:08;3.40;;;1.90;;
13588;SDS011;6865;52.552;13.434;2024-01-07T06:25:34;3.17;;;2.00;;
13588;SDS011;6865;52.552;13.434;2024-01-07T06:28:01;4.23;;;2.20;;
13588;SDS011;6865;52.552;13.434;2024-01-07T06:30:28;3.27;;;2.20;;
13588;SDS011;6865;52.552;13.434;2024-01-07T06:32:54;2.40;;;1.90;;
13588;SDS011;6865;52.552;13.434;2024-01-07T06:35:21;3.40;;;2.33;;
13588;SDS011;6865;52.552;13.434;2024-01-07T06:37:48;2.83;;;1.90;;
13588;SDS011;6865;52.552;13.434;2024-01-07T06:40:15;3.60;;;2.07;;
13588;SDS011;6865;52.552;13.434;2024-01-07T06:42:42;2.53;;;1.80;;
13588;SDS011;6865;52.552;13.434;2024-01-07T06:45:10;3.73;;;2.00;;
13588;SDS011;6865;52.552;13.434;2024-01-07T06:47:37;3.70;;;2.30;;
13588;SDS011;6865;52.552;13.434;2024-01-07T06:50:04;2.60;;;1.80;;
13588;SDS011;6865;52.552;13.434;2024-01-07T06:52:32;2.40;;;1.80;;
13588;SDS011;6865;52.552;13.434;2024-01-07T06:54:58;3.60;;;2.10;;
13588;SDS011;6865;52.552;13.434;2024-01-07T06:57:25;3.77;;;2.00;;
13588;SDS011;6865;52.552;13.434;2024-01-07T06:59:52;4.13;;;2.20;;
13588;SDS011;6865;52.552;13.434;2024-01-07T07:02:19;2.73;;;1.90;;
13588;SDS011;6865;52.552;13.434;2024-01-07T07:04:46;2.97;;;2.00;;
13588;SDS011;6865;52.552;13.434;2024-01-07T07:07:14;2.73;;;2.03;;
13588;SDS011;6865;52.552;13.434;2024-01-07T07:09:41;2.73;;;2.00;;
13588;SDS011;6865;52.552;13.434;2024-01-07T07:12:07;2.47;;;1.80;;
13588;SDS011;6865;52.552;13.434;2024-01-07T07:14:34;4.77;;;2.20;;
13588;SDS011;6865;52.552;13.434;2024-01-07T07:17:01;2.73;;;1.83;;
13588;SDS011;6865;52.552;13.434;2024-01-07T07:19:28;3.20;;;2.07;;
13588;SDS011;6865;52.552;13.434;2024-01-07T07:21:55;3.50;;;1.80;;
13588;SDS011;6865;52.552;13.434;2024-01-07T07:24:22;3.47;;;2.00;;
13588;SDS011;6865;52.552;13.434;2024-01-07T07:26:48;3.30;;;2.17;;
13588;SDS011;6865;52.552;13.434;2024-01-07T07:29:15;3.00;;;2.00;;
13588;SDS011;6865;52.552;13.434;2024-01-07T07:31:42;3.27;;;2.03;;
13588;SDS011;6865;52.552;13.434;2024-01-07T07:34:09;2.90;;;2.00;;
13588;SDS011;6865;52.552;13.434;2024-01-07T07:36:36;2.80;;;1.87;;
13588;SDS011;6865;52.552;13.434;2024-01-07T07:39:03;2.63;;;1.97;;
13588;SDS011;6865;52.552;13.434;2024-01-07T07:41:29;2.93;;;2.10;;
13588;SDS011;6865;52.552;13.434;2024-01-07T07:43:56;2.63;;;2.00;;
13588;SDS011;6865;52.552;13.434;2024-01-07T07:46:22;2.70;;;2.00;;
13588;SDS011;6865;52.552;13.434;2024-01-07T07:48:49;2.57;;;1.77;;
13588;SDS011;6865;52.552;13.434;2024-01-07T07:51:16;2.30;;;1.80;;
13588;SDS011;6865;52.552;13.434;2024-01-07T07:53:43;2.90;;;1.90;;
13588;SDS011;6865;52.552;13.434;2024-01-07T07:56:09;2.33;;;1.80;;
13588;SDS011;6865;52.552;13.434;2024-01-07T07:58:36;3.00;;;1.90;;
13588;SDS011;6865;52.552;13.434;2024-01-07T08:01:03;2.87;;;1.63;;
13588;SDS011;6865;52.552;13.434;2024-01-07T08:03:30;2.73;;;1.77;;
13588;SDS011;6865;52.552;13.434;2024-01-07T08:05:58;2.30;;;1.80;;
13588;SDS011;6865;52.552;13.434;2024-01-07T08:08:24;2.10;;;1.80;;
13588;SDS011;6865;52.552;13.434;2024-01-07T08:10:51;5.10;;;2.20;;
13588;SDS011;6865;52.552;13.434;2024-01-07T08:13:18;3.47;;;2.70;;
13588;SDS011;6865;52.552;13.434;2024-01-07T08:15:45;3.23;;;2.20;;
13588;SDS011;6865;52.552;13.434;2024-01-07T08:18:11;5.10;;;2.47;;
13588;SDS011;6865;52.552;13.434;2024-01-07T08:20:38;3.60;;;2.30;;
13588;SDS011;6865;52.552;13.434;2024-01-07T08:23:05;5.17;;;2.60;;
13588;SDS011;6865;52.552;13.434;2024-01-07T08:25:32;3.60;;;2.40;;
13588;SDS011;6865;52.552;13.434;2024-01-07T08:27:58;4.40;;;2.57;;
13588;SDS011;6865;52.552;13.434;2024-01-07T08:30:25;3.13;;;2.30;;
13588;SDS011;6865;52.552;13.434;2024-01-07T08:32:52;3.23;;;2.03;;
13588;SDS011;6865;52.552;13.434;2024-01-07T08:35:19;4.07;;;2.37;;
13588;SDS011;6865;52.552;13.434;2024-01-07T08:37:48;3.33;;;2.10;;
13588;SDS011;6865;52.552;13.434;2024-01-07T08:40:15;5.33;;;2.40;;
13588;SDS011;6865;52.552;13.434;2024-01-07T08:42:45;3.53;;;2.30;;
13588;SDS011;6865;52.552;13.434;2024-01-07T08:45:12;4.70;;;2.10;;
13588;SDS011;6865;52.552;13.434;2024-01-07T08:47:39;4.90;;;2.50;;
13588;SDS011;6865;52.552;13.434;2024-01-07T08:50:10;2.97;;;2.10;;
13588;SDS011;6865;52.552;13.434;2024-01-07T08:52:37;4.77;;;2.57;;
13588;SDS011;6865;52.552;13.434;2024-01-07T08:55:04;8.43;;;3.67;;
13588;SDS011;6865;52.552;13.434;2024-01-07T08:57:32;7.23;;;4.17;;
13588;SDS011;6865;52.552;13.434;2024-01-07T08:59:59;5.60;;;3.40;;
13588;SDS011;6865;52.552;13.434;2024-01-07T09:02:26;5.77;;;4.10;;
13588;SDS011;6865;52.552;13.434;2024-01-07T09:04:53;5.93;;;4.13;;
13588;SDS011;6865;52.552;13.434;2024-01-07T09:07:19;5.20;;;3.47;;
13588;SDS011;6865;52.552;13.434;2024-01-07T09:09:46;5.53;;;3.50;;
13588;SDS011;6865;52.552;13.434;2024-01-07T09:12:14;6.53;;;3.73;;
13588;SDS011;6865;52.552;13.434;2024-01-07T09:14:40;5.13;;;3.50;;
13588;SDS011;6865;52.552;13.434;2024-01-07T09:17:07;6.13;;;3.77;;
13588;SDS011;6865;52.552;13.434;2024-01-07T09:19:34;5.40;;;3.47;;
13588;SDS011;6865;52.552;13.434;2024-01-07T09:22:01;4.33;;;3.40;;
13588;SDS011;6865;52.552;13.434;2024-01-07T09:24:28;3.53;;;2.63;;
13588;SDS011;6865;52.552;13.434;2024-01-07T09:26:55;4.30;;;2.83;;
13588;SDS011;6865;52.552;13.434;2024-01-07T09:29:23;5.33;;;3.00;;
13588;SDS011;6865;52.552;13.434;2024-01-07T09:31:50;5.93;;;3.10;;
13588;SDS011;6865;52.552;13.434;2024-01-07T09:34:16;5.07;;;3.23;;
13588;SDS011;6865;52.552;13.434;2024-01-07T09:36:43;4.23;;;3.03;;
13588;SDS011;6865;52.552;13.434;2024-01-07T09:39:11;4.97;;;3.40;;
13588;SDS011;6865;52.552;13.434;2024-01-07T09:41:37;4.53;;;3.00;;
13588;SDS011;6865;52.552;13.434;2024-01-07T09:44:06;6.17;;;3.20;;
13588;SDS011;6865;52.552;13.434;2024-01-07T09:46:34;4.53;;;3.17;;
13588;SDS011;6865;52.552;13.434;2024-01-07T09:49:03;5.40;;;3.27;;
13588;SDS011;6865;52.552;13.434;2024-01-07T09:51:30;4.30;;;2.80;;
13588;SDS011;6865;52.552;13.434;2024-01-07T09:54:02;6.00;;;3.20;;
13588;SDS011;6865;52.552;13.434;2024-01-07T09:56:40;4.20;;;3.20;;
13588;SDS011;6865;52.552;13.434;2024-01-07T09:59:12;5.80;;;3.50;;
13588;SDS011;6865;52.552;13.434;2024-01-07T10:01:40;4.73;;;2.97;;
13588;SDS011;6865;52.552;13.434;2024-01-07T10:04:07;4.90;;;3.27;;
13588;SDS011;6865;52.552;13.434;2024-01-07T10:06:34;5.73;;;3.20;;
13588;SDS011;6865;52.552;13.434;2024-01-07T10:09:01;5.73;;;3.33;;
13588;SDS011;6865;52.552;13.434;2024-01-07T10:11:27;6.27;;;3.57;;
13588;SDS011;6865;52.552;13.434;2024-01-07T10:13:54;6.00;;;3.70;;
13588;SDS011;6865;52.552;13.434;2024-01-07T10:16:21;5.07;;;3.53;;
13588;SDS011;6865;52.552;13.434;2024-01-07T10:18:47;5.90;;;3.90;;
13588;SDS011;6865;52.552;13.434;2024-01-07T10:21:14;6.17;;;3.83;;
13588;SDS011;6865;52.552;13.434;2024-01-07T10:23:41;6.20;;;3.43;;
13588;SDS011;6865;52.552;13.434;2024-01-07T10:26:08;5.80;;;3.47;;
13588;SDS011;6865;52.552;13.434;2024-01-07T10:28:48;5.00;;;3.50;;
13588;SDS011;6865;52.552;13.434;2024-01-07T10:31:15;7.27;;;4.00;;
13588;SDS011;6865;52.552;13.434;2024-01-07T10:33:43;5.33;;;3.20;;
13588;SDS011;6865;52.552;13.434;2024-01-07T10:36:10;4.30;;;3.20;;
13588;SDS011;6865;52.552;13.434;2024-01-07T10:38:37;6.00;;;3.80;;
13588;SDS011;6865;52.552;13.434;2024-01-07T10:41:09;5.50;;;3.83;;
13588;SDS011;6865;52.552;13.434;2024-01-07T10:43:38;6.07;;;3.80;;
13588;SDS011;6865;52.552;13.434;2024-01-07T10:46:06;5.60;;;3.77;;
13588;SDS011;6865;52.552;13.434;2024-01-07T10:48:37;5.73;;;3.70;;
13588;SDS011;6865;52.552;13.434;2024-01-07T10:51:04;6.50;;;3.97;;
13588;SDS011;6865;52.552;13.434;2024-01-07T10:53:33;7.13;;;3.70;;
13588;SDS011;6865;52.552;13.434;2024-01-07T10:56:04;6.33;;;4.13;;
13588;SDS011;6865;52.552;13.434;2024-01-07T10:58:35;6.97;;;4.40;;
13588;SDS011;6865;52.552;13.434;2024-01-07T11:01:03;6.80;;;4.00;;
13588;SDS011;6865;52.552;13.434;2024-01-07T11:06:29;6.43;;;3.93;;
13588;SDS011;6865;52.552;13.434;2024-01-07T11:12:07;6.47;;;3.63;;
13588;SDS011;6865;52.552;13.434;2024-01-07T11:17:06;5.50;;;3.40;;
13588;SDS011;6865;52.552;13.434;2024-01-07T11:19:35;6.13;;;4.03;;
13588;SDS011;6865;52.552;13.434;2024-01-07T11:24:52;6.80;;;3.40;;
13588;SDS011;6865;52.552;13.434;2024-01-07T11:27:20;6.83;;;4.13;;
13588;SDS011;6865;52.552;13.434;2024-01-07T11:29:57;5.63;;;3.53;;
13588;SDS011;6865;52.552;13.434;2024-01-07T11:32:33;5.33;;;3.60;;
13588;SDS011;6865;52.552;13.434;2024-01-07T11:35:01;5.77;;;3.80;;
13588;SDS011;6865;52.552;13.434;2024-01-07T11:37:29;5.57;;;3.50;;
13588;SDS011;6865;52.552;13.434;2024-01-07T11:39:56;4.57;;;3.30;;
13588;SDS011;6865;52.552;13.434;2024-01-07T11:42:24;4.40;;;3.00;;
13588;SDS011;6865;52.552;13.434;2024-01-07T11:44:53;3.77;;;3.23;;
13588;SDS011;6865;52.552;13.434;2024-01-07T11:47:21;5.63;;;3.07;;
13588;SDS011;6865;52.552;13.434;2024-01-07T11:49:49;6.37;;;3.77;;
13588;SDS011;6865;52.552;13.434;2024-01-07T11:52:16;6.00;;;3.70;;
13588;SDS011;6865;52.552;13.434;2024-01-07T11:54:43;6.33;;;4.23;;
13588;SDS011;6865;52.552;13.434;2024-01-07T11:57:10;5.33;;;4.20;;
13588;SDS011;6865;52.552;13.434;2024-01-07T11:59:37;5.50;;;4.13;;
13588;SDS011;6865;52.552;13.434;2024-01-07T12:02:07;6.13;;;3.50;;
13588;SDS011;6865;52.552;13.434;2024-01-07T12:04:34;5.37;;;3.70;;
13588;SDS011;6865;52.552;13.434;2024-01-07T12:07:01;4.83;;;3.07;;
13588;SDS011;6865;52.552;13.434;2024-01-07T12:09:29;5.00;;;3.47;;
13588;SDS011;6865;52.552;13.434;2024-01-07T12:11:57;4.37;;;3.03;;
13588;SDS011;6865;52.552;13.434;2024-01-07T12:14:24;4.33;;;2.97;;
13588;SDS011;6865;52.552;13.434;2024-01-07T12:16:52;5.43;;;3.20;;
13588;SDS011;6865;52.552;13.434;2024-01-07T12:19:19;4.33;;;3.23;;
13588;SDS011;6865;52.552;13.434;2024-01-07T12:21:48;6.40;;;3.20;;
13588;SDS011;6865;52.552;13.434;2024-01-07T12:24:14;4.87;;;3.03;;
13588;SDS011;6865;52.552;13.434;2024-01-07T12:26:41;3.87;;;2.73;;
13588;SDS011;6865;52.552;13.434;2024-01-07T12:29:09;4.63;;;3.10;;
13588;SDS011;6865;52.552;13.434;2024-01-07T12:31:38;7.80;;;3.07;;
13588;SDS011;6865;52.552;13.434;2024-01-07T12:34:06;5.00;;;3.30;;
13588;SDS011;6865;52.552;13.434;2024-01-07T12:36:34;3.40;;;3.00;;
13588;SDS011;6865;52.552;13.434;2024-01-07T12:39:01;5.13;;;3.20;;
13588;SDS011;6865;52.552;13.434;2024-01-07T12:41:28;5.40;;;3.10;;
13588;SDS011;6865;52.552;13.434;2024-01-07T12:43:55;5.17;;;3.40;;
13588;SDS011;6865;52.552;13.434;2024-01-07T12:46:22;4.67;;;3.30;;
13588;SDS011;6865;52.552;13.434;2024-01-07T12:48:49;4.90;;;3.30;;
13588;SDS011;6865;52.552;13.434;2024-01-07T12:51:16;8.13;;;3.37;;
13588;SDS011;6865;52.552;13.434;2024-01-07T12:53:47;5.43;;;3.20;;
13588;SDS011;6865;52.552;13.434;2024-01-07T12:56:14;4.67;;;3.50;;
13588;SDS011;6865;52.552;13.434;2024-01-07T12:58:41;4.33;;;3.30;;
13588;SDS011;6865;52.552;13.434;2024-01-07T13:01:08;4.97;;;3.30;;
13588;SDS011;6865;52.552;13.434;2024-01-07T13:03:35;3.70;;;2.80;;
13588;SDS011;6865;52.552;13.434;2024-01-07T13:06:03;4.70;;;3.50;;
13588;SDS011;6865;52.552;13.434;2024-01-07T13:08:30;4.60;;;2.83;;
13588;SDS011;6865;52.552;13.434;2024-01-07T13:10:57;4.60;;;3.23;;
13588;SDS011;6865;52.552;13.434;2024-01-07T13:13:25;4.17;;;2.80;;
13588;SDS011;6865;52.552;13.434;2024-01-07T13:15:52;3.50;;;2.60;;
13588;SDS011;6865;52.552;13.434;2024-01-07T13:18:19;4.37;;;2.87;;
13588;SDS011;6865;52.552;13.434;2024-01-07T13:20:46;3.20;;;2.70;;
13588;SDS011;6865;52.552;13.434;2024-01-07T13:23:13;3.70;;;2.90;;
13588;SDS011;6865;52.552;13.434;2024-01-07T13:25:40;5.03;;;2.90;;
13588;SDS011;6865;52.552;13.434;2024-01-07T13:28:07;4.33;;;2.93;;
13588;SDS011;6865;52.552;13.434;2024-01-07T13:30:37;3.10;;;2.70;;
13588;SDS011;6865;52.552;13.434;2024-01-07T13:33:04;4.27;;;2.90;;
13588;SDS011;6865;52.552;13.434;2024-01-07T13:35:33;3.97;;;2.90;;
13588;SDS011;6865;52.552;13.434;2024-01-07T13:38:00;6.20;;;3.50;;
13588;SDS011;6865;52.552;13.434;2024-01-07T13:40:28;4.87;;;3.30;;
13588;SDS011;6865;52.552;13.434;2024-01-07T13:42:54;4.13;;;3.27;;
13588;SDS011;6865;52.552;13.434;2024-01-07T13:45:21;3.83;;;3.13;;
13588;SDS011;6865;52.552;13.434;2024-01-07T13:47:49;3.67;;;2.73;;
13588;SDS011;6865;52.552;13.434;2024-01-07T13:50:16;3.57;;;3.00;;
13588;SDS011;6865;52.552;13.434;2024-01-07T13:52:44;5.30;;;3.37;;
13588;SDS011;6865;52.552;13.434;2024-01-07T13:55:10;5.37;;;3.17;;
13588;SDS011;6865;52.552;13.434;2024-01-07T13:57:37;4.07;;;3.30;;
13588;SDS011;6865;52.552;13.434;2024-01-07T14:00:05;4.50;;;2.90;;
13588;SDS011;6865;52.552;13.434;2024-01-07T14:02:36;5.10;;;3.00;;
13588;SDS011;6865;52.552;13.434;2024-01-07T14:05:04;4.10;;;2.70;;
13588;SDS011;6865;52.552;13.434;2024-01-07T14:07:33;4.40;;;2.90;;
13588;SDS011;6865;52.552;13.434;2024-01-07T14:09:59;7.23;;;2.80;;
13588;SDS011;6865;52.552;13.434;2024-01-07T14:12:29;3.60;;;2.60;;
13588;SDS011;6865;52.552;13.434;2024-01-07T14:14:56;2.97;;;2.40;;
13588;SDS011;6865;52.552;13.434;2024-01-07T14:17:23;3.70;;;2.50;;
13588;SDS011;6865;52.552;13.434;2024-01-07T14:19:50;4.23;;;3.07;;
13588;SDS011;6865;52.552;13.434;2024-01-07T14:22:21;5.57;;;2.90;;
13588;SDS011;6865;52.552;13.434;2024-01-07T14:24:49;3.67;;;2.97;;
13588;SDS011;6865;52.552;13.434;2024-01-07T14:27:16;4.20;;;2.50;;
13588;SDS011;6865;52.552;13.434;2024-01-07T14:29:43;3.67;;;2.50;;
13588;SDS011;6865;52.552;13.434;2024-01-07T14:32:11;5.07;;;3.07;;
13588;SDS011;6865;52.552;13.434;2024-01-07T14:34:38;3.27;;;2.70;;
13588;SDS011;6865;52.552;13.434;2024-01-07T14:37:10;3.87;;;2.50;;
13588;SDS011;6865;52.552;13.434;2024-01-07T14:39:37;4.77;;;3.00;;
13588;SDS011;6865;52.552;13.434;2024-01-07T14:42:04;3.70;;;2.60;;
13588;SDS011;6865;52.552;13.434;2024-01-07T14:44:31;3.93;;;2.80;;
13588;SDS011;6865;52.552;13.434;2024-01-07T14:47:13;3.97;;;2.90;;
13588;SDS011;6865;52.552;13.434;2024-01-07T14:49:41;3.10;;;2.60;;
13588;SDS011;6865;52.552;13.434;2024-01-07T14:52:08;2.60;;;2.17;;
13588;SDS011;6865;52.552;13.434;2024-01-07T14:54:35;3.20;;;2.40;;
13588;SDS011;6865;52.552;13.434;2024-01-07T14:57:04;5.53;;;2.83;;
13588;SDS011;6865;52.552;13.434;2024-01-07T14:59:32;3.97;;;2.33;;